createdAt,value
2023-02-02T00:03:50.782Z,6.30
2023-02-02T00:07:57.738Z,6.30
2023-02-02T00:12:04.559Z,6.40
2023-02-02T00:16:29.402Z,6.50
2023-02-02T00:20:36.396Z,6.50
2023-02-02T00:24:43.054Z,6.60
2023-02-02T00:28:49.742Z,6.60
2023-02-02T00:32:56.522Z,6.60
2023-02-02T00:37:03.304Z,6.50
2023-02-02T00:41:10.052Z,6.60
2023-02-02T00:45:16.959Z,6.60
2023-02-02T00:49:23.963Z,6.60
2023-02-02T00:53:30.712Z,6.60
2023-02-02T00:57:37.786Z,6.60
2023-02-02T01:01:45.706Z,6.70
2023-02-02T01:05:52.442Z,6.70
2023-02-02T01:09:59.209Z,6.70
2023-02-02T01:14:06.186Z,6.70
2023-02-02T01:18:12.821Z,6.70
2023-02-02T01:22:19.483Z,6.80
2023-02-02T01:26:27.995Z,6.80
2023-02-02T01:30:34.874Z,6.80
2023-02-02T01:34:42.028Z,6.70
2023-02-02T01:38:50.236Z,6.80
2023-02-02T01:42:56.974Z,6.80
2023-02-02T01:47:04.704Z,6.90
2023-02-02T01:51:20.895Z,6.80
2023-02-02T01:55:31.420Z,6.90
2023-02-02T01:59:38.831Z,6.80
2023-02-02T02:03:46.079Z,6.90
2023-02-02T02:07:55.582Z,6.90
2023-02-02T02:12:03.538Z,7.00
2023-02-02T02:16:35.994Z,7.00
2023-02-02T02:21:43.631Z,7.00
2023-02-02T02:26:31.080Z,6.90
2023-02-02T02:31:02.725Z,6.90
2023-02-02T02:35:37.845Z,6.80
2023-02-02T02:39:55.781Z,6.70
2023-02-02T02:44:09.693Z,6.70
2023-02-02T02:48:17.027Z,6.60
2023-02-02T02:52:23.814Z,6.70
2023-02-02T02:57:17.875Z,6.70
2023-02-02T03:01:34.780Z,6.50
2023-02-02T03:05:50.783Z,6.40
2023-02-02T03:09:59.191Z,6.40
2023-02-02T03:14:09.615Z,6.40
2023-02-02T03:18:19.687Z,6.40
2023-02-02T03:22:27.446Z,6.50
2023-02-02T03:26:35.040Z,6.50
2023-02-02T03:30:43.365Z,6.50
2023-02-02T03:34:50.104Z,6.50
2023-02-02T03:38:56.824Z,6.60
2023-02-02T03:43:03.472Z,6.50
2023-02-02T03:47:10.155Z,6.60
2023-02-02T03:51:17.038Z,6.60
2023-02-02T03:55:24.269Z,6.70
2023-02-02T03:59:31.197Z,6.70
2023-02-02T04:03:38.194Z,6.80
2023-02-02T04:07:44.867Z,6.80
2023-02-02T04:11:51.665Z,6.90
2023-02-02T04:16:00.063Z,6.90
2023-02-02T04:20:07.577Z,6.90
2023-02-02T04:24:15.226Z,6.90
2023-02-02T04:28:23.887Z,6.90
2023-02-02T04:32:30.598Z,6.90
2023-02-02T04:36:37.253Z,7.00
2023-02-02T04:40:46.469Z,7.00
2023-02-02T04:44:53.116Z,7.00
2023-02-02T04:48:59.811Z,7.00
2023-02-02T04:53:06.571Z,7.00
2023-02-02T04:57:13.324Z,7.10
2023-02-02T05:01:20.865Z,7.10
2023-02-02T05:05:27.766Z,7.20
2023-02-02T05:09:34.478Z,7.20
2023-02-02T05:13:48.953Z,7.20
2023-02-02T05:17:55.708Z,7.20
2023-02-02T05:22:02.401Z,7.20
2023-02-02T05:26:15.269Z,7.20
2023-02-02T05:30:22.055Z,7.20
2023-02-02T05:34:28.841Z,7.30
2023-02-02T05:38:35.938Z,7.30
2023-02-02T05:42:42.723Z,7.20
2023-02-02T05:46:49.392Z,7.30
2023-02-02T05:51:07.172Z,7.30
2023-02-02T05:55:13.917Z,7.30
2023-02-02T05:59:20.628Z,7.30
2023-02-02T06:03:27.609Z,7.30
2023-02-02T06:07:34.391Z,7.30
2023-02-02T06:11:43.032Z,7.40
2023-02-02T06:15:49.932Z,7.30
2023-02-02T06:19:56.828Z,7.40
2023-02-02T06:24:03.549Z,7.30
2023-02-02T06:28:10.497Z,7.40
2023-02-02T06:32:17.280Z,7.40
2023-02-02T06:36:25.874Z,7.30
2023-02-02T06:40:32.561Z,7.40
2023-02-02T06:44:39.239Z,7.30
2023-02-02T06:48:46.031Z,7.30
2023-02-02T06:52:53.337Z,7.30
2023-02-02T06:57:00.071Z,7.30
2023-02-02T07:01:09.839Z,7.30
2023-02-02T07:05:19.426Z,7.20
2023-02-02T07:09:26.130Z,7.30
2023-02-02T07:13:33.031Z,7.20
2023-02-02T07:17:39.778Z,7.30
2023-02-02T07:21:46.519Z,7.30
2023-02-02T07:26:09.064Z,7.40
2023-02-02T07:30:17.319Z,7.30
2023-02-02T07:34:24.209Z,7.30
2023-02-02T07:38:30.944Z,7.30
2023-02-02T07:42:37.666Z,7.40
2023-02-02T07:46:46.219Z,7.40
2023-02-02T07:50:52.959Z,7.40
2023-02-02T07:55:12.779Z,7.40
2023-02-02T07:59:21.327Z,7.50
2023-02-02T08:03:28.315Z,7.50
2023-02-02T08:07:35.470Z,7.50
2023-02-02T08:11:42.258Z,7.40
2023-02-02T08:15:49.038Z,7.40
2023-02-02T08:19:56.894Z,7.40
2023-02-02T08:24:05.160Z,8.20
2023-02-02T08:28:11.864Z,7.50
2023-02-02T08:32:18.910Z,7.50
2023-02-02T08:36:27.608Z,7.50
2023-02-02T08:40:34.542Z,7.50
2023-02-02T08:45:59.503Z,7.50
2023-02-02T08:49:12.743Z,7.60
2023-02-02T08:53:19.540Z,7.50
2023-02-02T08:57:27.772Z,7.50
2023-02-02T09:01:35.080Z,7.60
2023-02-02T09:05:42.068Z,7.60
2023-02-02T09:09:52.563Z,7.70
2023-02-02T09:14:02.256Z,7.60
2023-02-02T09:18:08.949Z,7.70
2023-02-02T09:22:16.684Z,7.70
2023-02-02T09:26:26.578Z,7.60
2023-02-02T09:30:33.387Z,7.60
2023-02-02T09:34:40.967Z,7.60
2023-02-02T09:38:49.221Z,7.60
2023-02-02T09:43:28.841Z,7.70
2023-02-02T09:47:57.337Z,7.70
2023-02-02T09:52:13.431Z,7.70
2023-02-02T09:56:38.919Z,7.70
2023-02-02T10:01:04.746Z,7.70
2023-02-02T10:05:20.874Z,7.80
2023-02-02T10:09:53.758Z,7.80
2023-02-02T10:14:06.727Z,7.80
2023-02-02T10:18:20.959Z,7.70
2023-02-02T10:22:29.613Z,7.90
2023-02-02T10:26:46.452Z,8.00
2023-02-02T10:31:01.292Z,8.10
2023-02-02T10:35:29.986Z,8.30
2023-02-02T10:39:43.066Z,8.40
2023-02-02T10:44:06.114Z,8.30
2023-02-02T10:48:19.362Z,8.20
2023-02-02T10:52:31.597Z,8.10
2023-02-02T10:56:43.972Z,8.10
2023-02-02T11:00:54.536Z,8.10
2023-02-02T11:05:20.047Z,8.10
2023-02-02T11:09:30.842Z,8.10
2023-02-02T11:13:44.089Z,8.20
2023-02-02T11:17:51.095Z,8.40
2023-02-02T11:22:01.451Z,8.40
2023-02-02T11:26:10.656Z,8.50
2023-02-02T11:30:37.493Z,8.50
2023-02-02T11:34:44.304Z,8.60
2023-02-02T11:39:14.738Z,8.60
2023-02-02T11:43:31.934Z,8.60
2023-02-02T11:47:38.672Z,8.50
2023-02-02T11:52:00.179Z,8.40
2023-02-02T11:56:10.988Z,8.40
2023-02-02T12:00:20.343Z,8.30
2023-02-02T12:04:27.732Z,8.30
2023-02-02T12:08:34.527Z,8.30
2023-02-02T12:12:45.203Z,8.20
2023-02-02T12:17:20.296Z,8.20
2023-02-02T12:21:40.994Z,8.40
2023-02-02T12:26:23.045Z,8.40
2023-02-02T12:31:02.338Z,8.60
2023-02-02T12:35:31.386Z,8.80
2023-02-02T12:40:18.534Z,8.70
2023-02-02T12:44:43.691Z,8.80
2023-02-02T12:49:20.242Z,9.00
2023-02-02T12:53:41.854Z,9.00
2023-02-02T12:57:56.461Z,9.00
2023-02-02T13:02:10.673Z,8.80
2023-02-02T13:06:39.362Z,8.90
2023-02-02T13:10:50.772Z,9.00
2023-02-02T13:15:12.728Z,9.00
2023-02-02T13:19:34.656Z,9.00
2023-02-02T13:23:50.412Z,8.90
2023-02-02T13:27:59.687Z,8.80
2023-02-02T13:32:28.637Z,8.90
2023-02-02T13:36:37.514Z,8.80
2023-02-02T13:40:44.938Z,8.70
2023-02-02T13:45:01.402Z,8.70
2023-02-02T13:49:20.822Z,8.60
2023-02-02T13:53:54.714Z,8.80
2023-02-02T13:58:22.886Z,8.80
2023-02-02T14:02:58.733Z,8.70
2023-02-02T14:07:06.506Z,8.70
2023-02-02T14:11:21.778Z,8.90
2023-02-02T14:15:38.549Z,8.80
2023-02-02T14:19:51.457Z,8.80
2023-02-02T14:24:14.221Z,8.80
2023-02-02T14:28:46.446Z,8.70
2023-02-02T14:32:53.290Z,8.60
2023-02-02T14:37:25.154Z,8.60
2023-02-02T14:42:09.885Z,8.50
2023-02-02T14:46:24.381Z,8.70
2023-02-02T14:50:45.317Z,8.70
2023-02-02T14:54:52.059Z,8.70
2023-02-02T14:59:01.600Z,8.80
2023-02-02T15:03:35.069Z,8.70
2023-02-02T15:07:54.138Z,8.80
2023-02-02T15:12:06.692Z,8.80
2023-02-02T15:16:24.057Z,8.80
2023-02-02T15:20:36.167Z,8.70
2023-02-02T15:24:45.509Z,8.70
2023-02-02T15:29:00.159Z,8.70
2023-02-02T15:33:23.264Z,8.70
2023-02-02T15:37:41.585Z,8.70
2023-02-02T15:42:10.303Z,8.70
2023-02-02T15:46:24.319Z,8.60
2023-02-02T15:50:31.284Z,8.60
2023-02-02T15:54:38.173Z,8.60
2023-02-02T15:58:48.434Z,8.60
2023-02-02T16:03:23.521Z,8.70
2023-02-02T16:07:33.634Z,8.60
2023-02-02T16:11:50.838Z,8.50
2023-02-02T16:16:06.962Z,8.50
2023-02-02T16:20:17.657Z,8.50
2023-02-02T16:24:28.258Z,8.40
2023-02-02T16:28:35.428Z,8.40
2023-02-02T16:32:44.003Z,8.40
2023-02-02T16:37:07.953Z,8.30
2023-02-02T16:41:29.562Z,8.40
2023-02-02T16:45:49.393Z,8.20
2023-02-02T16:50:30.865Z,8.20
2023-02-02T16:54:38.656Z,8.20
2023-02-02T16:58:45.606Z,8.20
2023-02-02T17:02:58.499Z,8.20
2023-02-02T17:07:13.307Z,8.20
2023-02-02T17:11:25.058Z,8.20
2023-02-02T17:15:34.986Z,8.30
2023-02-02T17:19:42.001Z,8.30
2023-02-02T17:23:54.272Z,8.30
2023-02-02T17:28:03.427Z,8.30
2023-02-02T17:32:13.395Z,8.40
2023-02-02T17:36:20.045Z,8.40
2023-02-02T17:40:27.028Z,8.40
2023-02-02T17:44:34.132Z,8.40
2023-02-02T17:48:40.828Z,8.40
2023-02-02T17:52:49.593Z,8.50
2023-02-02T17:56:56.237Z,8.50
2023-02-02T18:01:03.323Z,8.50
2023-02-02T18:05:10.993Z,8.50
2023-02-02T18:09:17.724Z,8.50
2023-02-02T18:13:24.786Z,8.60
2023-02-02T18:17:33.996Z,8.50
2023-02-02T18:21:40.761Z,8.50
2023-02-02T18:25:47.654Z,8.50
2023-02-02T18:29:54.286Z,8.40
2023-02-02T18:34:00.904Z,8.50
2023-02-02T18:38:07.607Z,8.40
2023-02-02T18:42:14.598Z,8.40
2023-02-02T18:46:21.462Z,8.30
2023-02-02T18:50:28.153Z,8.30
2023-02-02T18:54:35.711Z,8.40
2023-02-02T18:58:42.589Z,8.40
2023-02-02T19:02:49.438Z,8.40
2023-02-02T19:07:14.797Z,9.20
2023-02-02T19:11:24.100Z,8.40
2023-02-02T19:15:42.323Z,8.50
2023-02-02T19:19:50.349Z,8.50
2023-02-02T19:23:57.341Z,8.50
2023-02-02T19:28:19.259Z,8.40
2023-02-02T19:32:31.066Z,8.70
2023-02-02T19:36:37.991Z,8.40
2023-02-02T19:40:44.811Z,8.30
2023-02-02T19:44:51.717Z,8.30
2023-02-02T19:49:10.849Z,8.40
2023-02-02T19:53:38.470Z,8.40
2023-02-02T19:57:45.275Z,8.40
2023-02-02T20:01:52.001Z,8.40
2023-02-02T20:06:00.563Z,8.50
2023-02-02T20:10:19.309Z,8.40
2023-02-02T20:14:29.319Z,8.40
2023-02-02T20:18:44.273Z,8.40
2023-02-02T20:22:51.121Z,8.30
2023-02-02T20:27:02.816Z,8.30
2023-02-02T20:31:13.294Z,8.30
2023-02-02T20:35:31.889Z,8.20
2023-02-02T20:40:02.623Z,8.20
2023-02-02T20:44:09.623Z,8.30
2023-02-02T20:48:16.337Z,8.20
2023-02-02T20:52:23.961Z,8.30
2023-02-02T20:56:30.848Z,8.20
2023-02-02T21:00:38.651Z,8.30
2023-02-02T21:04:47.213Z,8.30
2023-02-02T21:08:53.991Z,8.40
2023-02-02T21:13:00.679Z,8.40
2023-02-02T21:17:14.771Z,8.30
2023-02-02T21:21:22.530Z,8.40
2023-02-02T21:25:29.374Z,8.50
2023-02-02T21:29:36.322Z,8.50
2023-02-02T21:33:44.453Z,8.50
2023-02-02T21:37:56.586Z,8.40
2023-02-02T21:42:09.565Z,8.40
2023-02-02T21:46:24.490Z,8.40
2023-02-02T21:50:40.499Z,8.40
2023-02-02T21:54:48.818Z,8.40
2023-02-02T21:58:59.536Z,8.50
2023-02-02T22:03:34.171Z,8.50
2023-02-02T22:07:42.835Z,8.50
2023-02-02T22:12:01.385Z,8.80
2023-02-02T22:16:16.559Z,8.50
2023-02-02T22:20:34.191Z,8.50
2023-02-02T22:24:41.986Z,8.50
2023-02-02T22:28:48.681Z,8.50
2023-02-02T22:32:55.708Z,8.60
2023-02-02T22:37:02.338Z,8.60
2023-02-02T22:41:09.288Z,8.60
2023-02-02T22:45:16.074Z,8.70
2023-02-02T22:49:22.842Z,8.70
2023-02-02T22:53:29.496Z,8.70
2023-02-02T22:57:36.180Z,8.80
2023-02-02T23:01:42.848Z,8.80
2023-02-02T23:05:49.444Z,8.80
2023-02-02T23:09:56.245Z,8.80
2023-02-02T23:14:02.926Z,8.80
2023-02-02T23:18:09.516Z,8.80
2023-02-02T23:22:16.438Z,8.80
2023-02-02T23:26:23.979Z,8.70
2023-02-02T23:30:30.597Z,8.70
2023-02-02T23:34:37.211Z,8.60
2023-02-02T23:38:43.833Z,8.70
2023-02-02T23:42:50.477Z,8.60
2023-02-02T23:46:57.529Z,8.70
2023-02-02T23:51:04.313Z,8.70
2023-02-02T23:55:11.091Z,8.70
2023-02-02T23:59:17.966Z,8.80
